Time;durP1;ratioP1;P1;durP2;ratioP2;P2;SDS_P1;SDS_P2;PMS_P1;PMS_P2;Temp;Humidity;BMP_temperature;BMP_pressure;BME280_temperature;BME280_humidity;BME280_pressure;Samples;Min_cycle;Max_cycle;Signal;HPM_P1;HPM_P2
2021/04/24 00:00:40;;;;;;;20.50;9.85;;;22.60;33.00;;;;;;6224068;28;83143;-64
2021/04/24 00:03:41;;;;;;;19.67;10.85;;;22.60;34.30;;;;;;6227881;28;83620;-64
2021/04/24 00:06:41;;;;;;;18.58;10.27;;;22.70;33.70;;;;;;6223863;28;82961;-64
2021/04/24 00:09:42;;;;;;;20.00;10.77;;;22.60;33.70;;;;;;6224087;28;84348;-64
2021/04/24 00:12:42;;;;;;;20.63;11.05;;;22.60;33.80;;;;;;6219544;28;83547;-64
2021/04/24 00:15:43;;;;;;;23.13;11.38;;;22.60;33.10;;;;;;6225142;28;83180;-64
2021/04/24 00:18:43;;;;;;;21.73;11.35;;;22.60;33.40;;;;;;6226640;28;84351;-64
2021/04/24 00:21:44;;;;;;;18.77;10.13;;;22.60;33.40;;;;;;6228168;28;83191;-64
2021/04/24 00:24:45;;;;;;;19.83;10.18;;;22.60;33.90;;;;;;6230359;28;83091;-64
2021/04/24 00:27:45;;;;;;;21.98;11.05;;;22.60;33.30;;;;;;6227691;28;84671;-64
2021/04/24 00:30:46;;;;;;;23.77;11.27;;;22.60;33.50;;;;;;6226221;28;83215;-64
2021/04/24 00:33:47;;;;;;;21.05;11.05;;;22.60;33.40;;;;;;6220318;28;85935;-64
2021/04/24 00:36:47;;;;;;;20.92;11.68;;;22.60;33.10;;;;;;6228245;28;83122;-64
2021/04/24 00:39:48;;;;;;;21.23;10.90;;;22.60;33.30;;;;;;6217670;28;84386;-63
2021/04/24 00:42:48;;;;;;;22.45;11.70;;;22.60;33.60;;;;;;6228804;28;83383;-63
2021/04/24 00:45:49;;;;;;;19.10;11.02;;;22.60;33.40;;;;;;6227658;28;83371;-63
2021/04/24 00:48:50;;;;;;;19.25;10.05;;;22.50;33.50;;;;;;6211020;28;83612;-63
2021/04/24 00:51:50;;;;;;;21.08;10.75;;;22.60;33.60;;;;;;6223961;28;83621;-63
2021/04/24 00:54:51;;;;;;;24.27;11.57;;;22.60;33.50;;;;;;6223104;28;83503;-63
2021/04/24 00:57:51;;;;;;;21.77;11.90;;;22.60;33.20;;;;;;6226661;28;83532;-61
2021/04/24 01:00:52;;;;;;;20.55;11.55;;;22.60;33.10;;;;;;6226961;28;82920;-63
2021/04/24 01:03:52;;;;;;;23.80;10.57;;;22.60;33.30;;;;;;6227796;28;83647;-63
2021/04/24 01:06:53;;;;;;;24.30;11.48;;;22.60;33.00;;;;;;6223795;28;84840;-63
2021/04/24 01:09:53;;;;;;;22.35;10.82;;;22.60;33.00;;;;;;6228725;28;83057;-63
2021/04/24 01:12:54;;;;;;;19.30;11.13;;;22.60;32.90;;;;;;6227864;28;83341;-63
2021/04/24 01:15:54;;;;;;;23.92;12.02;;;22.60;33.10;;;;;;6228878;28;83092;-63
2021/04/24 01:18:55;;;;;;;24.38;11.93;;;22.60;33.20;;;;;;6227640;28;83482;-63
2021/04/24 01:21:55;;;;;;;22.40;12.32;;;22.60;33.20;;;;;;6228307;28;82933;-63
2021/04/24 01:24:56;;;;;;;20.65;11.05;;;22.60;33.10;;;;;;6227100;28;83678;-63
2021/04/24 01:27:56;;;;;;;25.35;12.02;;;22.60;33.30;;;;;;6227454;28;83477;-62
2021/04/24 01:30:57;;;;;;;22.30;10.98;;;22.60;33.30;;;;;;6227388;28;84050;-63
2021/04/24 01:33:57;;;;;;;27.92;12.23;;;22.60;33.30;;;;;;6230043;28;83550;-63
2021/04/24 01:36:58;;;;;;;21.02;10.75;;;22.60;33.60;;;;;;6227447;28;83953;-62
2021/04/24 01:39:58;;;;;;;25.30;11.52;;;22.60;33.80;;;;;;6220128;28;83467;-62
2021/04/24 01:42:59;;;;;;;22.23;11.95;;;22.60;34.00;;;;;;6227338;28;82998;-62
2021/04/24 01:46:00;;;;;;;19.95;10.55;;;22.60;33.90;;;;;;6208591;28;88292;-64
2021/04/24 01:49:00;;;;;;;23.38;11.75;;;22.60;33.90;;;;;;6221913;28;84540;-63
2021/04/24 01:52:01;;;;;;;22.17;11.75;;;22.60;34.00;;;;;;6227032;28;82800;-63
2021/04/24 01:55:01;;;;;;;24.13;11.23;;;22.60;33.60;;;;;;6210288;28;83166;-63
2021/04/24 01:58:02;;;;;;;19.98;10.93;;;22.60;33.80;;;;;;6228552;28;84040;-63
2021/04/24 02:01:02;;;;;;;21.77;11.55;;;22.60;33.80;;;;;;6225337;28;84169;-63
2021/04/24 02:04:03;;;;;;;26.13;12.57;;;22.60;34.10;;;;;;6222287;28;83718;-63
2021/04/24 02:07:04;;;;;;;23.75;11.65;;;22.60;33.80;;;;;;6222443;28;83759;-62
2021/04/24 02:10:04;;;;;;;21.17;11.35;;;22.60;33.90;;;;;;6226409;28;83375;-63
2021/04/24 02:13:05;;;;;;;24.85;12.52;;;22.60;33.90;;;;;;6225229;28;83239;-62
2021/04/24 02:16:05;;;;;;;25.65;12.65;;;22.50;33.60;;;;;;6225928;28;83131;-63
2021/04/24 02:19:06;;;;;;;23.27;11.95;;;22.60;33.80;;;;;;6226221;28;83209;-64
2021/04/24 02:22:06;;;;;;;25.13;11.73;;;22.60;33.70;;;;;;6226110;28;83487;-63
2021/04/24 02:25:07;;;;;;;22.75;12.38;;;22.50;34.00;;;;;;6227982;28;83086;-63
2021/04/24 02:28:07;;;;;;;21.50;11.35;;;22.60;34.10;;;;;;6225702;28;83533;-63
2021/04/24 02:31:08;;;;;;;25.27;12.35;;;22.60;33.80;;;;;;6225230;28;83849;-63
2021/04/24 02:34:08;;;;;;;26.58;13.40;;;22.60;33.80;;;;;;6225507;28;83391;-63
2021/04/24 02:37:09;;;;;;;23.17;12.25;;;22.50;33.60;;;;;;6226143;28;83995;-63
2021/04/24 02:40:09;;;;;;;24.52;12.02;;;22.50;33.80;;;;;;6223928;28;83693;-63
2021/04/24 02:43:10;;;;;;;24.98;11.77;;;22.50;33.50;;;;;;6221812;28;83205;-63
2021/04/24 02:46:10;;;;;;;25.17;12.20;;;22.50;33.70;;;;;;6194300;28;85368;-63
2021/04/24 02:49:11;;;;;;;21.08;10.48;;;22.50;33.70;;;;;;6225182;28;82844;-64
2021/04/24 02:52:11;;;;;;;22.48;11.48;;;22.50;33.00;;;;;;6220592;28;83219;-63
2021/04/24 02:55:12;;;;;;;21.38;11.68;;;22.60;33.50;;;;;;6208916;28;85997;-63
2021/04/24 02:58:12;;;;;;;23.23;11.00;;;22.60;33.30;;;;;;6222847;28;83634;-63
2021/04/24 03:01:13;;;;;;;19.05;10.32;;;22.50;32.60;;;;;;6222384;28;83004;-63
2021/04/24 03:04:14;;;;;;;20.90;11.15;;;22.50;32.50;;;;;;6224604;28;84535;-62
2021/04/24 03:07:14;;;;;;;21.52;9.65;;;22.50;33.30;;;;;;6224896;28;83431;-62
2021/04/24 03:10:15;;;;;;;21.45;10.10;;;22.50;33.50;;;;;;6227240;28;83333;-62
2021/04/24 03:13:15;;;;;;;20.45;9.57;;;22.50;33.40;;;;;;6224105;28;89494;-64
2021/04/24 03:16:16;;;;;;;18.88;9.60;;;22.50;33.20;;;;;;6227980;28;84590;-64
2021/04/24 03:19:16;;;;;;;18.35;10.20;;;22.50;33.50;;;;;;6224866;28;80750;-64
2021/04/24 03:22:17;;;;;;;19.08;10.15;;;22.50;33.20;;;;;;6225791;28;82908;-64
2021/04/24 03:25:17;;;;;;;19.35;9.98;;;22.50;33.30;;;;;;6224936;28;83061;-64
2021/04/24 03:28:18;;;;;;;19.73;10.20;;;22.50;33.40;;;;;;6224437;28;83352;-63
2021/04/24 03:31:18;;;;;;;19.95;10.82;;;22.50;33.40;;;;;;6223277;28;87764;-64
2021/04/24 03:34:19;;;;;;;19.30;9.35;;;22.50;33.30;;;;;;6225478;28;83131;-64
2021/04/24 03:37:19;;;;;;;17.15;9.85;;;22.50;33.50;;;;;;6227626;28;83242;-64
2021/04/24 03:40:20;;;;;;;19.40;9.43;;;22.50;33.00;;;;;;6218960;28;80444;-64
2021/04/24 03:43:21;;;;;;;18.23;9.75;;;22.50;33.00;;;;;;6227263;28;80641;-64
2021/04/24 03:46:21;;;;;;;19.50;9.60;;;22.50;32.80;;;;;;6172024;28;85508;-64
2021/04/24 03:49:22;;;;;;;19.40;9.20;;;22.50;32.30;;;;;;6210923;28;83414;-63
2021/04/24 03:52:22;;;;;;;17.75;9.57;;;22.50;33.30;;;;;;6231589;28;81890;-64
2021/04/24 03:55:23;;;;;;;16.58;8.77;;;22.50;33.00;;;;;;6234577;28;80852;-64
2021/04/24 03:58:23;;;;;;;16.50;9.20;;;22.50;33.20;;;;;;6233244;28;81198;-64
2021/04/24 04:01:24;;;;;;;15.38;8.30;;;22.50;33.30;;;;;;6231953;28;80543;-64
2021/04/24 04:04:25;;;;;;;17.67;9.07;;;22.50;33.50;;;;;;6234244;28;80414;-63
2021/04/24 04:07:25;;;;;;;17.27;8.52;;;22.40;32.70;;;;;;6229713;28;81533;-63
2021/04/24 04:10:26;;;;;;;15.50;7.93;;;22.50;33.00;;;;;;6231347;28;81601;-63
2021/04/24 04:13:26;;;;;;;19.58;9.18;;;22.50;33.20;;;;;;6232428;28;80629;-63
2021/04/24 04:16:27;;;;;;;16.02;8.73;;;22.50;33.00;;;;;;6212104;28;80812;-62
2021/04/24 04:19:27;;;;;;;15.85;7.90;;;22.50;33.20;;;;;;6225413;28;83318;-62
2021/04/24 04:22:28;;;;;;;16.05;7.80;;;22.50;32.30;;;;;;6232559;28;80821;-61
2021/04/24 04:25:28;;;;;;;15.88;7.78;;;22.50;32.90;;;;;;6232334;28;80435;-64
2021/04/24 04:28:29;;;;;;;20.45;8.25;;;22.50;32.60;;;;;;6231706;28;80347;-62
2021/04/24 04:31:29;;;;;;;15.55;8.25;;;22.50;32.80;;;;;;6228438;28;80352;-62
2021/04/24 04:34:30;;;;;;;14.32;7.78;;;22.50;32.70;;;;;;6214349;28;80549;-62
2021/04/24 04:37:30;;;;;;;18.48;8.32;;;22.60;32.90;;;;;;6232592;28;80524;-62
2021/04/24 04:40:31;;;;;;;16.05;7.90;;;22.60;33.30;;;;;;6220653;28;82115;-62
2021/04/24 04:43:31;;;;;;;14.85;7.55;;;22.50;33.10;;;;;;6224340;28;91418;-62
2021/04/24 04:46:32;;;;;;;15.38;8.15;;;22.60;33.00;;;;;;6231555;28;81615;-62
2021/04/24 04:49:32;;;;;;;15.50;7.95;;;22.60;33.20;;;;;;6215680;28;80919;-63
2021/04/24 04:52:33;;;;;;;15.85;8.43;;;22.60;33.20;;;;;;6232008;28;80419;-62
2021/04/24 04:55:33;;;;;;;17.48;8.48;;;22.60;34.50;;;;;;6219971;28;82061;-63
2021/04/24 04:58:34;;;;;;;12.82;8.23;;;22.60;33.40;;;;;;6232534;28;81213;-62
2021/04/24 05:01:34;;;;;;;16.17;9.48;;;22.60;33.50;;;;;;6233934;28;80308;-62
2021/04/24 05:04:35;;;;;;;16.20;8.68;;;22.60;33.50;;;;;;6232586;28;80479;-62
2021/04/24 05:07:35;;;;;;;15.90;8.10;;;22.60;33.90;;;;;;6233980;28;80277;-62
2021/04/24 05:10:36;;;;;;;16.00;7.57;;;22.70;34.10;;;;;;6231123;28;80814;-63
2021/04/24 05:13:36;;;;;;;21.15;8.55;;;22.70;34.80;;;;;;6235653;28;80444;-62
2021/04/24 05:16:37;;;;;;;19.95;9.73;;;22.70;35.40;;;;;;6216120;28;81762;-61
2021/04/24 05:19:37;;;;;;;21.73;11.10;;;22.70;36.20;;;;;;6241118;28;80399;-63
2021/04/24 05:22:38;;;;;;;26.10;11.82;;;22.70;37.50;;;;;;6229758;27;83132;-63
2021/04/24 05:25:39;;;;;;;20.48;11.48;;;22.70;37.90;;;;;;6228549;28;82936;-65
2021/04/24 05:28:40;;;;;;;23.77;10.85;;;22.70;38.10;;;;;;6228187;28;85654;-63
2021/04/24 05:31:40;;;;;;;20.60;10.43;;;22.80;38.30;;;;;;6220509;28;83109;-62
2021/04/24 05:34:41;;;;;;;17.25;9.55;;;22.80;38.10;;;;;;6228927;28;83122;-62
2021/04/24 05:37:41;;;;;;;19.35;9.20;;;22.80;37.30;;;;;;6231040;28;82752;-62
2021/04/24 05:40:42;;;;;;;18.02;9.02;;;22.70;37.00;;;;;;6222072;28;85338;-63
2021/04/24 05:43:42;;;;;;;21.50;9.80;;;22.80;36.90;;;;;;6233801;28;80454;-64
2021/04/24 05:46:43;;;;;;;17.27;8.82;;;22.80;36.70;;;;;;6233245;28;81965;-63
2021/04/24 05:49:43;;;;;;;18.88;9.15;;;22.80;36.80;;;;;;6234723;28;80419;-64
2021/04/24 05:52:44;;;;;;;20.08;8.85;;;22.80;36.80;;;;;;6223212;28;80500;-64
2021/04/24 05:55:44;;;;;;;19.98;9.52;;;22.80;36.80;;;;;;6229071;28;80369;-62
2021/04/24 05:58:45;;;;;;;22.58;9.55;;;22.80;36.60;;;;;;6228778;28;81056;-63
2021/04/24 06:01:45;;;;;;;17.45;8.38;;;22.80;36.60;;;;;;6220116;28;81695;-62
2021/04/24 06:04:47;;;;;;;14.77;8.43;;;22.80;36.20;;;;;;6210313;28;82103;-62
2021/04/24 06:07:48;;;;;;;19.25;8.82;;;22.80;36.10;;;;;;6214490;28;82592;-64
2021/04/24 06:10:48;;;;;;;16.48;8.52;;;22.90;35.80;;;;;;6233104;28;80505;-63
2021/04/24 06:13:49;;;;;;;16.00;7.97;;;22.90;35.60;;;;;;6236286;28;80466;-63
2021/04/24 06:16:50;;;;;;;18.50;8.70;;;22.90;35.70;;;;;;6240175;28;81171;-63
2021/04/24 06:19:51;;;;;;;21.25;8.25;;;22.90;35.80;;;;;;6227527;28;80502;-62
2021/04/24 06:22:51;;;;;;;17.98;8.23;;;22.90;35.80;;;;;;6235515;28;80469;-62
2021/04/24 06:25:52;;;;;;;13.55;6.82;;;22.80;35.50;;;;;;6232560;28;80886;-63
2021/04/24 06:28:52;;;;;;;16.08;8.07;;;22.80;35.40;;;;;;6230335;28;80767;-62
2021/04/24 06:31:53;;;;;;;20.13;9.00;;;22.90;35.60;;;;;;6229243;28;80622;-62
2021/04/24 06:34:53;;;;;;;17.60;7.40;;;22.90;35.60;;;;;;6226539;28;80358;-61
2021/04/24 06:37:57;;;;;;;15.60;7.43;;;22.90;35.60;;;;;;6228013;28;81104;-63
2021/04/24 06:40:57;;;;;;;15.65;7.50;;;22.90;35.50;;;;;;6235230;28;80430;-63
2021/04/24 06:43:58;;;;;;;14.98;7.57;;;22.90;35.70;;;;;;6231793;28;80489;-63
2021/04/24 06:46:58;;;;;;;16.52;7.78;;;22.90;35.70;;;;;;6226672;28;80550;-61
2021/04/24 06:49:59;;;;;;;13.85;7.68;;;22.90;35.50;;;;;;6225251;28;82169;-61
2021/04/24 06:53:00;;;;;;;17.63;6.93;;;22.90;35.60;;;;;;6211571;28;83427;-61
2021/04/24 06:56:00;;;;;;;12.90;6.80;;;22.90;35.20;;;;;;6230556;28;80312;-60
2021/04/24 06:59:01;;;;;;;18.42;7.47;;;22.90;35.10;;;;;;6233393;28;81068;-61
2021/04/24 07:02:01;;;;;;;14.20;7.25;;;22.90;35.30;;;;;;6233151;28;80567;-62
2021/04/24 07:05:02;;;;;;;14.35;7.13;;;22.90;35.00;;;;;;6230032;28;80750;-64
2021/04/24 07:08:03;;;;;;;15.13;7.07;;;22.90;34.70;;;;;;6239621;28;80512;-64
2021/04/24 07:11:03;;;;;;;11.93;6.50;;;22.90;35.00;;;;;;6233581;28;81829;-64
2021/04/24 07:14:04;;;;;;;14.65;6.40;;;22.90;35.10;;;;;;6243894;28;80283;-64
2021/04/24 07:17:04;;;;;;;13.65;6.88;;;22.90;35.20;;;;;;6219122;28;80559;-64
2021/04/24 07:20:05;;;;;;;13.55;6.88;;;23.00;35.10;;;;;;6230867;28;80565;-64
2021/04/24 07:23:05;;;;;;;10.88;6.50;;;22.90;34.90;;;;;;6227191;28;80560;-64
2021/04/24 07:26:06;;;;;;;12.88;7.13;;;22.90;35.00;;;;;;6228602;28;83590;-65
2021/04/24 07:29:06;;;;;;;10.88;6.57;;;22.90;34.80;;;;;;6228096;28;90393;-65
2021/04/24 07:32:07;;;;;;;10.88;6.00;;;22.90;35.70;;;;;;6214663;28;81112;-64
2021/04/24 07:35:07;;;;;;;10.50;5.30;;;22.90;35.50;;;;;;6227042;28;80471;-64
2021/04/24 07:38:08;;;;;;;11.10;5.57;;;22.90;35.20;;;;;;6229241;28;81874;-66
2021/04/24 07:41:08;;;;;;;10.45;5.88;;;22.90;35.40;;;;;;6231512;28;81552;-63
2021/04/24 07:44:09;;;;;;;12.10;5.60;;;22.90;35.00;;;;;;6214930;28;83564;-64
2021/04/24 07:47:09;;;;;;;11.45;6.05;;;22.90;34.90;;;;;;6230011;28;80711;-64
2021/04/24 07:50:10;;;;;;;12.10;5.60;;;23.00;34.80;;;;;;6231600;28;81098;-64
2021/04/24 07:53:10;;;;;;;10.20;5.20;;;23.00;34.60;;;;;;6212787;28;82422;-64
2021/04/24 07:56:11;;;;;;;14.20;5.50;;;23.00;34.50;;;;;;6234992;28;80750;-64
2021/04/24 07:59:11;;;;;;;11.32;5.53;;;23.00;34.50;;;;;;6228249;28;80773;-64
2021/04/24 08:02:12;;;;;;;11.55;5.75;;;22.90;34.60;;;;;;6228333;28;80655;-63
2021/04/24 08:05:13;;;;;;;9.45;5.35;;;23.00;34.90;;;;;;6227906;28;81632;-63
2021/04/24 08:08:13;;;;;;;13.18;5.80;;;23.00;34.80;;;;;;6234121;28;81624;-62
2021/04/24 08:11:14;;;;;;;10.73;5.45;;;23.00;34.30;;;;;;6220457;28;80528;-64
2021/04/24 08:14:14;;;;;;;11.40;6.10;;;23.00;34.30;;;;;;6229015;28;80400;-63
2021/04/24 08:17:15;;;;;;;9.38;5.25;;;23.00;34.30;;;;;;6225633;28;80515;-64
2021/04/24 08:20:15;;;;;;;9.05;5.20;;;23.00;34.40;;;;;;6227871;28;80630;-64
2021/04/24 08:23:16;;;;;;;13.60;5.10;;;23.00;34.50;;;;;;6230151;28;82798;-63
2021/04/24 08:26:18;;;;;;;9.88;5.05;;;23.00;34.10;;;;;;6231628;28;81298;-64
2021/04/24 08:29:19;;;;;;;9.05;4.97;;;23.00;34.10;;;;;;6228978;28;80287;-64
2021/04/24 08:32:19;;;;;;;9.45;4.88;;;23.00;33.90;;;;;;6226045;28;81193;-65
2021/04/24 08:35:20;;;;;;;8.77;5.13;;;23.00;34.00;;;;;;6224418;28;80298;-64
2021/04/24 08:38:20;;;;;;;7.20;4.55;;;23.10;33.90;;;;;;6231691;28;81228;-64
2021/04/24 08:41:21;;;;;;;12.35;5.40;;;23.10;34.30;;;;;;6235005;28;80673;-63
2021/04/24 08:44:21;;;;;;;10.80;5.18;;;23.10;34.00;;;;;;6235212;28;80146;-63
2021/04/24 08:47:22;;;;;;;8.43;4.75;;;23.00;34.00;;;;;;6236312;28;81018;-62
2021/04/24 08:50:22;;;;;;;8.57;5.15;;;23.00;34.00;;;;;;6228199;28;80615;-63
2021/04/24 08:53:23;;;;;;;13.68;4.95;;;23.10;34.10;;;;;;6231303;28;80488;-62
2021/04/24 08:56:25;;;;;;;8.50;4.57;;;23.10;34.20;;;;;;6215227;28;81612;-62
2021/04/24 08:59:25;;;;;;;11.13;5.70;;;23.00;34.40;;;;;;6232757;28;89921;-62
2021/04/24 09:02:26;;;;;;;7.05;4.10;;;23.10;34.70;;;;;;6232789;28;80441;-62
2021/04/24 09:05:27;;;;;;;9.30;4.60;;;23.10;34.60;;;;;;6232148;28;80349;-62
2021/04/24 09:08:27;;;;;;;10.45;4.30;;;23.10;34.50;;;;;;6236530;28;80926;-63
2021/04/24 09:11:28;;;;;;;9.38;4.22;;;23.20;34.40;;;;;;6222400;28;80350;-63
2021/04/24 09:14:28;;;;;;;7.55;4.55;;;23.20;34.20;;;;;;6237647;28;81511;-62
2021/04/24 09:17:29;;;;;;;8.60;4.70;;;23.20;34.10;;;;;;6232239;28;80491;-63
2021/04/24 09:20:30;;;;;;;7.75;4.28;;;23.20;34.10;;;;;;6238882;28;80657;-62
2021/04/24 09:23:30;;;;;;;7.57;3.95;;;23.10;34.00;;;;;;6229221;28;80397;-63
2021/04/24 09:26:31;;;;;;;9.68;4.70;;;23.20;33.90;;;;;;6238437;28;80244;-62
2021/04/24 09:29:31;;;;;;;9.50;4.40;;;23.20;33.70;;;;;;6228574;28;80852;-63
2021/04/24 09:32:32;;;;;;;7.85;3.95;;;23.20;33.50;;;;;;6221195;28;80675;-63
2021/04/24 09:35:32;;;;;;;7.97;4.05;;;23.20;33.60;;;;;;6234342;28;81547;-63
2021/04/24 09:38:33;;;;;;;7.25;3.85;;;23.20;33.80;;;;;;6226479;28;80407;-63
2021/04/24 09:41:35;;;;;;;7.63;3.65;;;23.20;33.90;;;;;;6220766;28;82843;-64
2021/04/24 09:44:36;;;;;;;9.02;4.35;;;23.20;34.00;;;;;;6227342;28;80592;-63
2021/04/24 09:47:36;;;;;;;8.23;4.03;;;23.20;35.10;;;;;;6225641;28;83243;-64
2021/04/24 09:50:37;;;;;;;7.32;4.07;;;23.20;34.60;;;;;;6231255;28;81082;-63
2021/04/24 09:53:37;;;;;;;12.25;4.10;;;23.20;35.60;;;;;;6235287;28;81239;-63
2021/04/24 09:56:38;;;;;;;6.70;3.85;;;23.20;35.10;;;;;;6230815;28;81503;-62
2021/04/24 09:59:38;;;;;;;9.13;3.88;;;23.20;34.90;;;;;;6237013;28;80426;-63
2021/04/24 10:02:39;;;;;;;15.50;4.45;;;23.10;35.10;;;;;;6235712;28;80750;-63
2021/04/24 10:05:40;;;;;;;12.63;4.28;;;23.20;35.30;;;;;;6229748;28;80866;-64
2021/04/24 10:08:40;;;;;;;5.35;3.45;;;23.20;35.30;;;;;;6236197;28;81377;-63
2021/04/24 10:11:41;;;;;;;17.13;4.70;;;23.20;36.20;;;;;;6234652;28;80437;-63
2021/04/24 10:14:42;;;;;;;6.30;3.72;;;23.20;36.50;;;;;;6234325;28;81034;-63
2021/04/24 10:17:42;;;;;;;7.25;3.78;;;23.20;37.30;;;;;;6233924;28;80531;-63
2021/04/24 10:20:44;;;;;;;7.90;3.70;;;23.30;39.20;;;;;;6211177;28;83200;-63
2021/04/24 10:23:44;;;;;;;8.13;4.13;;;23.30;38.00;;;;;;6228041;28;81447;-64
2021/04/24 10:26:45;;;;;;;6.28;4.07;;;23.40;38.70;;;;;;6230431;28;80274;-63
2021/04/24 10:29:45;;;;;;;7.00;3.90;;;23.40;40.20;;;;;;6194354;28;81490;-65
2021/04/24 10:32:46;;;;;;;9.07;3.90;;;23.30;40.00;;;;;;6181532;28;80698;-63
2021/04/24 10:35:46;;;;;;;9.05;4.45;;;23.40;41.50;;;;;;6181790;28;81502;-63
2021/04/24 10:38:47;;;;;;;7.30;3.50;;;23.40;42.70;;;;;;6180241;28;80539;-63
2021/04/24 10:41:48;;;;;;;10.95;3.90;;;23.40;41.70;;;;;;6182627;28;81268;-63
2021/04/24 10:44:48;;;;;;;5.85;3.72;;;23.50;41.00;;;;;;6180190;28;80917;-63
2021/04/24 10:47:53;;;;;;;8.27;4.00;;;23.50;41.10;;;;;;6177210;28;81631;-63
2021/04/24 10:50:53;;;;;;;6.63;3.83;;;23.50;41.00;;;;;;6178282;28;80641;-64
2021/04/24 10:53:54;;;;;;;6.30;3.28;;;23.50;41.10;;;;;;6184536;28;80245;-64
2021/04/24 10:56:54;;;;;;;6.47;3.33;;;23.50;40.90;;;;;;6182141;28;80309;-64
2021/04/24 10:59:55;;;;;;;4.80;3.10;;;23.50;40.80;;;;;;6181424;28;80270;-64
2021/04/24 11:02:56;;;;;;;11.77;3.35;;;23.50;40.10;;;;;;6179178;28;80378;-64
2021/04/24 11:05:56;;;;;;;5.88;2.58;;;23.50;40.50;;;;;;6175686;28;80514;-63
2021/04/24 11:08:57;;;;;;;6.93;3.30;;;23.50;40.00;;;;;;6180246;28;80654;-64
2021/04/24 11:11:57;;;;;;;10.70;4.05;;;23.50;40.00;;;;;;6181341;28;80568;-64
2021/04/24 11:15:00;;;;;;;5.85;3.20;;;23.50;40.10;;;;;;6181851;28;80469;-64
2021/04/24 11:18:01;;;;;;;6.50;3.50;;;23.50;38.90;;;;;;6178979;28;80283;-63
2021/04/24 11:21:02;;;;;;;4.70;3.20;;;23.50;38.60;;;;;;6175286;28;81562;-64
2021/04/24 11:24:03;;;;;;;5.65;3.17;;;23.50;38.60;;;;;;6172625;28;80902;-63
2021/04/24 11:27:03;;;;;;;8.18;3.30;;;23.50;38.20;;;;;;6177624;28;81148;-65
2021/04/24 11:30:03;;;;;;;9.88;3.05;;;23.50;38.50;;;;;;6200892;28;80666;-63
2021/04/24 11:33:05;;;;;;;5.20;2.97;;;23.50;37.50;;;;;;6224853;28;83433;-63
2021/04/24 11:36:05;;;;;;;5.40;3.75;;;23.50;37.00;;;;;;6214136;28;80400;-64
2021/04/24 11:39:06;;;;;;;5.95;3.50;;;23.50;36.80;;;;;;6231127;28;80623;-64
2021/04/24 11:42:06;;;;;;;5.65;3.20;;;23.50;36.70;;;;;;6227820;28;80449;-64
2021/04/24 11:45:15;;;;;;;6.00;2.97;;;23.50;36.60;;;;;;6214037;28;81632;-64
2021/04/24 11:48:15;;;;;;;9.65;3.78;;;23.40;36.60;;;;;;6232196;28;80480;-64
2021/04/24 11:51:16;;;;;;;5.30;3.63;;;23.40;36.70;;;;;;6228970;28;81169;-65
2021/04/24 11:54:16;;;;;;;4.30;3.00;;;23.50;36.70;;;;;;6226719;28;81812;-65
2021/04/24 11:57:17;;;;;;;5.45;3.47;;;23.50;36.50;;;;;;6216600;28;80535;-64
2021/04/24 12:00:18;;;;;;;5.15;3.10;;;23.50;36.40;;;;;;6225718;28;81641;-65
2021/04/24 12:03:18;;;;;;;6.15;3.25;;;23.50;36.10;;;;;;6222765;28;80549;-63
2021/04/24 12:06:19;;;;;;;6.40;2.75;;;23.50;35.90;;;;;;6232907;28;80561;-65
2021/04/24 12:09:19;;;;;;;8.95;3.75;;;23.50;35.80;;;;;;6234016;28;80447;-64
2021/04/24 12:12:20;;;;;;;4.35;2.70;;;23.50;35.50;;;;;;6236587;27;91101;-64
2021/04/24 12:15:21;;;;;;;5.13;3.08;;;23.50;35.50;;;;;;6240791;28;80925;-64
2021/04/24 12:18:22;;;;;;;5.47;3.00;;;23.50;35.50;;;;;;6233650;28;80597;-64
2021/04/24 12:21:22;;;;;;;4.90;3.03;;;23.50;35.40;;;;;;6228556;28;80305;-63
2021/04/24 12:24:23;;;;;;;8.15;3.15;;;23.50;35.40;;;;;;6226902;28;81051;-65
2021/04/24 12:27:23;;;;;;;6.25;3.40;;;23.50;35.20;;;;;;6230954;28;80714;-63
2021/04/24 12:30:24;;;;;;;5.57;3.05;;;23.50;35.20;;;;;;6234407;28;81543;-63
2021/04/24 12:33:26;;;;;;;5.55;3.22;;;23.50;35.30;;;;;;6232040;28;80395;-63
2021/04/24 12:36:26;;;;;;;4.57;2.95;;;23.50;35.30;;;;;;6231801;28;80354;-63
2021/04/24 12:39:27;;;;;;;4.30;2.60;;;23.50;35.20;;;;;;6237262;28;80763;-65
2021/04/24 12:42:27;;;;;;;5.38;2.80;;;23.50;35.40;;;;;;6233748;28;81559;-64
2021/04/24 12:45:28;;;;;;;6.28;3.30;;;23.50;35.60;;;;;;6238346;28;81094;-65
2021/04/24 12:48:28;;;;;;;6.03;2.90;;;23.50;35.50;;;;;;6234414;28;80843;-64
2021/04/24 12:51:29;;;;;;;7.70;3.28;;;23.50;35.40;;;;;;6229188;28;81757;-64
2021/04/24 12:54:29;;;;;;;4.28;3.05;;;23.50;35.60;;;;;;6237351;28;80965;-63
2021/04/24 12:57:30;;;;;;;6.97;3.92;;;23.50;35.30;;;;;;6238571;28;80708;-64
2021/04/24 13:00:31;;;;;;;4.85;2.85;;;23.50;35.20;;;;;;6222708;28;81693;-64
2021/04/24 13:03:31;;;;;;;4.38;2.88;;;23.50;35.20;;;;;;6233191;28;80390;-63
2021/04/24 13:06:32;;;;;;;4.57;2.88;;;23.50;35.50;;;;;;6213893;28;80602;-66
2021/04/24 13:09:32;;;;;;;5.90;3.22;;;23.50;35.30;;;;;;6235615;28;80647;-66
2021/04/24 13:12:33;;;;;;;6.20;3.17;;;23.50;35.50;;;;;;6237605;28;80897;-66
2021/04/24 13:15:33;;;;;;;4.13;3.00;;;23.50;35.10;;;;;;6249558;28;81333;-65
2021/04/24 13:18:34;;;;;;;4.28;2.35;;;23.50;35.40;;;;;;6232338;28;80443;-65
2021/04/24 13:21:35;;;;;;;4.60;2.83;;;23.50;35.20;;;;;;6227351;28;81040;-65
2021/04/24 13:24:35;;;;;;;5.47;3.00;;;23.50;35.00;;;;;;6231898;28;82102;-65
2021/04/24 13:27:36;;;;;;;4.57;2.78;;;23.50;35.20;;;;;;6235772;28;80961;-66
2021/04/24 13:30:37;;;;;;;6.30;3.00;;;23.50;34.90;;;;;;6236801;28;80653;-64
2021/04/24 13:33:37;;;;;;;4.45;2.72;;;23.50;35.10;;;;;;6238685;28;80574;-65
2021/04/24 13:36:38;;;;;;;4.75;2.70;;;23.50;35.00;;;;;;6233631;28;81789;-63
2021/04/24 13:39:38;;;;;;;4.90;2.58;;;23.50;35.40;;;;;;6232318;27;83167;-64
2021/04/24 13:42:39;;;;;;;6.05;2.88;;;23.50;35.00;;;;;;6231187;28;81363;-63
2021/04/24 13:45:39;;;;;;;5.95;3.30;;;23.50;35.20;;;;;;6234640;28;80640;-63
2021/04/24 13:48:40;;;;;;;4.55;3.05;;;23.50;35.10;;;;;;6228120;28;81064;-63
2021/04/24 13:51:41;;;;;;;7.28;2.90;;;23.50;35.30;;;;;;6233072;28;83322;-64
2021/04/24 13:54:41;;;;;;;5.18;2.80;;;23.50;35.10;;;;;;6236720;28;80289;-64
2021/04/24 13:57:42;;;;;;;5.30;3.20;;;23.50;34.80;;;;;;6232477;28;81750;-62
2021/04/24 14:00:42;;;;;;;4.60;2.90;;;23.50;34.90;;;;;;6228623;28;80373;-62
2021/04/24 14:03:43;;;;;;;5.18;3.15;;;23.50;35.10;;;;;;6228855;28;80772;-61
2021/04/24 14:06:43;;;;;;;4.82;2.70;;;23.50;35.00;;;;;;6230600;28;81795;-62
2021/04/24 14:09:44;;;;;;;5.53;3.20;;;23.50;35.20;;;;;;6228926;28;81134;-62
2021/04/24 14:12:45;;;;;;;3.78;2.70;;;23.50;34.90;;;;;;6225351;28;80984;-62
2021/04/24 14:15:47;;;;;;;6.55;2.78;;;23.50;34.90;;;;;;6237678;28;81384;-63
2021/04/24 14:18:47;;;;;;;5.03;3.28;;;23.50;34.90;;;;;;6235062;28;80418;-61
2021/04/24 14:21:51;;;;;;;5.90;3.17;;;23.50;34.90;;;;;;6209522;28;80292;-62
2021/04/24 14:24:52;;;;;;;8.73;2.95;;;23.50;34.80;;;;;;6230946;28;81172;-62
2021/04/24 14:27:53;;;;;;;4.93;2.72;;;23.50;35.70;;;;;;6231797;28;80793;-62
2021/04/24 14:30:54;;;;;;;6.57;2.95;;;23.50;35.30;;;;;;6221207;28;84175;-61
2021/04/24 14:33:55;;;;;;;4.97;2.95;;;23.50;35.10;;;;;;6229729;28;80769;-62
2021/04/24 14:36:55;;;;;;;5.78;2.60;;;23.50;35.00;;;;;;6225265;28;81469;-63
2021/04/24 14:39:56;;;;;;;4.68;2.60;;;23.50;35.30;;;;;;6231753;28;80744;-62
2021/04/24 14:42:57;;;;;;;4.43;2.92;;;23.50;35.00;;;;;;6227379;28;80462;-62
2021/04/24 14:45:57;;;;;;;5.60;3.08;;;23.50;35.00;;;;;;6235200;28;82856;-64
2021/04/24 14:48:58;;;;;;;8.35;3.13;;;23.50;35.20;;;;;;6232927;28;80566;-64
2021/04/24 14:51:58;;;;;;;4.93;2.97;;;23.50;35.20;;;;;;6232789;28;80736;-62
2021/04/24 14:54:59;;;;;;;6.53;2.90;;;23.40;35.50;;;;;;6229441;28;81742;-64
2021/04/24 14:58:00;;;;;;;4.75;2.70;;;23.50;35.30;;;;;;6229507;28;82852;-63
2021/04/24 15:01:01;;;;;;;5.28;2.80;;;23.40;35.50;;;;;;6232894;28;80363;-62
2021/04/24 15:04:04;;;;;;;7.50;2.95;;;23.40;35.50;;;;;;6219250;28;83500;-63
2021/04/24 15:07:04;;;;;;;8.98;3.42;;;23.40;36.70;;;;;;6218428;28;81194;-64
2021/04/24 15:10:05;;;;;;;4.30;2.45;;;23.40;36.30;;;;;;6207493;28;81656;-64
2021/04/24 15:13:05;;;;;;;6.18;2.58;;;23.40;36.70;;;;;;6220525;28;80848;-63
2021/04/24 15:16:06;;;;;;;8.32;2.97;;;23.40;36.50;;;;;;6231381;28;81654;-63
2021/04/24 15:19:06;;;;;;;5.35;2.92;;;23.40;36.80;;;;;;6225638;28;81425;-62
2021/04/24 15:22:07;;;;;;;8.15;3.53;;;23.40;36.50;;;;;;6211096;27;81327;-62
2021/04/24 15:25:08;;;;;;;8.10;3.25;;;23.40;36.60;;;;;;6224565;28;81980;-63
2021/04/24 15:28:08;;;;;;;9.77;3.10;;;23.40;36.70;;;;;;6231038;28;80547;-64